createdAt,value
2023-01-08T00:00:20.058Z,7.10
2023-01-08T00:02:49.856Z,7.40
2023-01-08T00:05:17.244Z,8.02
2023-01-08T00:07:44.414Z,8.77
2023-01-08T00:10:11.592Z,6.72
2023-01-08T00:12:38.763Z,7.50
2023-01-08T00:15:06.605Z,8.98
2023-01-08T00:17:33.749Z,9.57
2023-01-08T00:20:00.929Z,8.20
2023-01-08T00:22:28.060Z,7.45
2023-01-08T00:24:55.231Z,7.40
2023-01-08T00:27:22.443Z,7.57
2023-01-08T00:29:49.615Z,8.18
2023-01-08T00:32:16.946Z,8.07
2023-01-08T00:34:44.134Z,8.25
2023-01-08T00:37:11.377Z,8.23
2023-01-08T00:39:38.514Z,9.25
2023-01-08T00:42:05.716Z,10.23
2023-01-08T00:44:32.858Z,7.90
2023-01-08T00:47:00.075Z,8.27
2023-01-08T00:49:27.215Z,6.55
2023-01-08T00:51:54.359Z,6.75
2023-01-08T00:54:21.523Z,5.95
2023-01-08T00:56:48.798Z,6.63
2023-01-08T00:59:16.037Z,4.78
2023-01-08T01:01:43.426Z,6.55
2023-01-08T01:04:10.728Z,5.13
2023-01-08T01:06:37.879Z,6.00
2023-01-08T01:09:05.040Z,6.18
2023-01-08T01:11:32.205Z,5.70
2023-01-08T01:13:59.418Z,5.97
2023-01-08T01:16:26.677Z,5.32
2023-01-08T01:18:55.410Z,4.03
2023-01-08T01:21:25.009Z,6.07
2023-01-08T01:23:54.731Z,5.50
2023-01-08T01:26:23.130Z,4.55
2023-01-08T01:28:51.107Z,4.95
2023-01-08T01:31:19.225Z,4.03
2023-01-08T01:33:46.602Z,4.38
2023-01-08T01:36:14.400Z,4.93
2023-01-08T01:38:45.346Z,3.70
2023-01-08T01:41:27.863Z,4.55
2023-01-08T01:43:55.932Z,5.38
2023-01-08T01:46:27.636Z,4.50
2023-01-08T01:48:56.369Z,5.15
2023-01-08T01:51:26.474Z,4.07
2023-01-08T01:53:53.605Z,6.53
2023-01-08T01:56:20.963Z,4.43
2023-01-08T01:58:48.112Z,4.85
2023-01-08T02:01:15.485Z,3.70
2023-01-08T02:03:42.754Z,4.60
2023-01-08T02:06:12.980Z,4.63
2023-01-08T02:08:50.476Z,6.05
2023-01-08T02:11:19.505Z,4.53
2023-01-08T02:13:51.505Z,4.13
2023-01-08T02:16:23.954Z,3.75
2023-01-08T02:18:55.970Z,4.13
2023-01-08T02:21:32.286Z,3.72
2023-01-08T02:24:17.868Z,4.15
2023-01-08T02:26:46.464Z,3.20
2023-01-08T02:29:18.405Z,4.40
2023-01-08T02:31:45.596Z,4.53
2023-01-08T02:34:13.469Z,3.58
2023-01-08T02:36:40.640Z,3.25
2023-01-08T02:39:20.027Z,4.75
2023-01-08T02:42:05.983Z,5.05
2023-01-08T02:44:39.233Z,5.93
2023-01-08T02:47:07.512Z,4.68
2023-01-08T02:49:37.818Z,3.53
2023-01-08T02:52:06.223Z,4.00
2023-01-08T02:54:35.260Z,3.88
2023-01-08T02:57:12.159Z,4.85
2023-01-08T02:59:40.579Z,3.92
2023-01-08T03:02:08.920Z,4.53
2023-01-08T03:04:40.199Z,3.88
2023-01-08T03:07:07.421Z,4.97
2023-01-08T03:09:35.122Z,3.53
2023-01-08T03:12:05.183Z,3.50
2023-01-08T03:14:32.303Z,3.35
2023-01-08T03:17:02.484Z,4.15
2023-01-08T03:19:33.488Z,3.15
2023-01-08T03:22:02.374Z,3.47
2023-01-08T03:24:32.156Z,5.35
2023-01-08T03:27:00.329Z,3.67
2023-01-08T03:29:28.280Z,3.63
2023-01-08T03:31:58.426Z,3.60
2023-01-08T03:34:26.274Z,4.22
2023-01-08T03:36:56.378Z,5.72
2023-01-08T03:39:46.882Z,2.80
2023-01-08T03:42:15.581Z,5.38
2023-01-08T03:44:42.966Z,4.82
2023-01-08T03:47:11.302Z,2.35
2023-01-08T03:49:39.633Z,4.07
2023-01-08T03:52:06.922Z,3.08
2023-01-08T03:54:35.546Z,3.55
2023-01-08T03:57:02.810Z,3.15
2023-01-08T03:59:30.177Z,3.63
2023-01-08T04:01:57.394Z,2.63
2023-01-08T04:04:24.636Z,3.30
2023-01-08T04:06:52.777Z,2.38
2023-01-08T04:09:20.045Z,1.98
2023-01-08T04:11:47.193Z,2.13
2023-01-08T04:14:14.413Z,2.35
2023-01-08T04:16:41.566Z,2.95
2023-01-08T04:19:08.732Z,1.75
2023-01-08T04:21:35.925Z,2.53
2023-01-08T04:24:03.131Z,2.60
2023-01-08T04:26:30.382Z,2.35
2023-01-08T04:28:57.585Z,1.50
2023-01-08T04:31:24.815Z,3.10
2023-01-08T04:33:52.015Z,2.08
2023-01-08T04:36:19.221Z,1.55
2023-01-08T04:38:46.408Z,1.67
2023-01-08T04:41:13.621Z,2.83
2023-01-08T04:43:40.751Z,2.58
2023-01-08T04:46:07.995Z,1.90
2023-01-08T04:48:35.298Z,1.85
2023-01-08T04:51:03.357Z,2.08
2023-01-08T04:53:31.141Z,2.70
2023-01-08T04:56:03.155Z,2.00
2023-01-08T04:58:30.349Z,1.88
2023-01-08T05:00:57.520Z,3.20
2023-01-08T05:03:24.831Z,2.15
2023-01-08T05:05:52.000Z,1.75
2023-01-08T05:08:19.188Z,2.00
2023-01-08T05:10:46.326Z,1.70
2023-01-08T05:13:13.467Z,1.80
2023-01-08T05:15:40.609Z,1.45
2023-01-08T05:18:07.797Z,2.70
2023-01-08T05:20:35.063Z,2.20
2023-01-08T05:23:02.447Z,2.72
2023-01-08T05:25:29.614Z,2.33
2023-01-08T05:27:56.796Z,1.60
2023-01-08T05:30:24.055Z,1.45
2023-01-08T05:32:51.199Z,1.13
2023-01-08T05:35:18.380Z,2.25
2023-01-08T05:37:45.531Z,1.58
2023-01-08T05:40:12.905Z,2.25
2023-01-08T05:42:40.097Z,1.83
2023-01-08T05:45:08.001Z,2.28
2023-01-08T05:47:35.800Z,1.98
2023-01-08T05:50:02.969Z,1.48
2023-01-08T05:52:30.191Z,1.63
2023-01-08T05:54:59.793Z,2.50
2023-01-08T05:57:27.151Z,3.08
2023-01-08T05:59:54.401Z,3.97
2023-01-08T06:02:21.717Z,1.15
2023-01-08T06:04:48.923Z,1.20
2023-01-08T06:07:16.088Z,2.85
2023-01-08T06:09:43.297Z,1.90
2023-01-08T06:12:10.454Z,2.58
2023-01-08T06:14:37.753Z,1.27
2023-01-08T06:17:04.919Z,1.13
2023-01-08T06:19:32.110Z,1.20
2023-01-08T06:21:59.225Z,2.42
2023-01-08T06:24:26.355Z,1.63
2023-01-08T06:26:53.647Z,2.22
2023-01-08T06:29:20.879Z,1.45
2023-01-08T06:31:48.000Z,1.60
2023-01-08T06:34:15.203Z,1.73
2023-01-08T06:36:42.337Z,2.10
2023-01-08T06:39:09.747Z,1.08
2023-01-08T06:41:36.863Z,2.10
2023-01-08T06:44:04.075Z,3.13
2023-01-08T06:46:31.835Z,1.92
2023-01-08T06:48:59.009Z,3.58
2023-01-08T06:51:26.170Z,2.75
2023-01-08T06:53:53.308Z,3.40
2023-01-08T06:56:20.575Z,1.48
2023-01-08T06:58:47.920Z,1.90
2023-01-08T07:01:16.612Z,2.67
2023-01-08T07:03:44.119Z,2.40
2023-01-08T07:06:18.939Z,1.98
2023-01-08T07:08:46.390Z,5.13
2023-01-08T07:11:14.338Z,2.97
2023-01-08T07:13:41.901Z,2.42
2023-01-08T07:16:10.020Z,2.70
2023-01-08T07:18:37.222Z,4.75
2023-01-08T07:21:04.872Z,1.55
2023-01-08T07:23:32.257Z,2.78
2023-01-08T07:26:01.558Z,2.47
2023-01-08T07:28:28.927Z,2.83
2023-01-08T07:30:56.274Z,1.92
2023-01-08T07:33:23.531Z,2.05
2023-01-08T07:35:54.560Z,6.00
2023-01-08T07:38:21.998Z,5.13
2023-01-08T07:40:49.209Z,7.35
2023-01-08T07:43:16.495Z,5.03
2023-01-08T07:45:43.737Z,4.95
2023-01-08T07:48:15.668Z,4.25
2023-01-08T07:50:43.991Z,4.03
2023-01-08T07:53:12.100Z,3.58
2023-01-08T07:55:39.309Z,3.58
2023-01-08T07:58:13.484Z,4.43
2023-01-08T08:00:41.008Z,3.03
2023-01-08T08:03:11.381Z,3.20
2023-01-08T08:05:39.025Z,3.63
2023-01-08T08:08:10.165Z,4.45
2023-01-08T08:10:37.761Z,3.53
2023-01-08T08:13:05.048Z,4.60
2023-01-08T08:15:32.851Z,5.43
2023-01-08T08:18:00.361Z,5.68
2023-01-08T08:20:28.073Z,4.20
2023-01-08T08:23:02.367Z,4.13
2023-01-08T08:25:29.724Z,4.28
2023-01-08T08:27:58.455Z,4.10
2023-01-08T08:30:25.772Z,4.00
2023-01-08T08:32:53.207Z,3.83
2023-01-08T08:35:20.447Z,7.25
2023-01-08T08:37:47.615Z,2.63
2023-01-08T08:40:14.775Z,5.00
2023-01-08T08:42:41.944Z,2.85
2023-01-08T08:45:09.467Z,3.63
2023-01-08T08:47:36.771Z,4.43
2023-01-08T08:50:04.448Z,4.15
2023-01-08T08:52:32.157Z,3.22
2023-01-08T08:54:59.318Z,4.40
2023-01-08T08:57:26.952Z,4.15
2023-01-08T08:59:54.229Z,5.97
2023-01-08T09:02:21.825Z,4.80
2023-01-08T09:04:49.103Z,3.22
2023-01-08T09:07:16.249Z,5.28
2023-01-08T09:09:43.384Z,4.53
2023-01-08T09:12:10.540Z,5.00
2023-01-08T09:14:37.706Z,4.40
2023-01-08T09:17:04.881Z,5.63
2023-01-08T09:19:32.092Z,5.53
2023-01-08T09:21:59.224Z,5.15
2023-01-08T09:24:26.647Z,5.25
2023-01-08T09:26:54.616Z,4.32
2023-01-08T09:29:22.073Z,8.18
2023-01-08T09:31:49.274Z,9.32
2023-01-08T09:34:16.503Z,7.70
2023-01-08T09:36:43.707Z,6.75
2023-01-08T09:39:10.898Z,6.50
2023-01-08T09:41:41.736Z,5.55
2023-01-08T09:44:12.735Z,5.28
2023-01-08T09:46:40.040Z,5.38
2023-01-08T09:49:08.572Z,6.60
2023-01-08T09:51:37.001Z,5.55
2023-01-08T09:54:05.698Z,5.60
2023-01-08T09:56:34.108Z,3.03
2023-01-08T09:59:02.663Z,4.32
2023-01-08T10:01:31.412Z,4.72
2023-01-08T10:04:03.994Z,6.40
2023-01-08T10:06:31.659Z,4.80
2023-01-08T10:08:59.218Z,5.90
2023-01-08T10:11:32.551Z,4.55
2023-01-08T10:13:59.776Z,5.65
2023-01-08T10:16:38.040Z,4.68
2023-01-08T10:19:05.749Z,6.18
2023-01-08T10:21:37.599Z,4.55
2023-01-08T10:24:04.926Z,4.22
2023-01-08T10:26:33.799Z,3.08
2023-01-08T10:29:13.451Z,4.78
2023-01-08T10:31:48.532Z,6.75
2023-01-08T10:34:22.955Z,2.60
2023-01-08T10:36:51.938Z,4.10
2023-01-08T10:39:24.544Z,2.47
2023-01-08T10:41:53.870Z,6.85
2023-01-08T10:44:22.791Z,2.40
2023-01-08T10:46:51.299Z,2.95
2023-01-08T10:49:21.687Z,2.50
2023-01-08T10:51:53.224Z,3.08
2023-01-08T10:54:40.427Z,4.55
2023-01-08T10:57:21.146Z,3.03
2023-01-08T10:59:48.392Z,2.10
2023-01-08T11:02:22.260Z,2.25
2023-01-08T11:04:51.499Z,2.05
2023-01-08T11:07:21.050Z,6.35
2023-01-08T11:09:49.507Z,1.73
2023-01-08T11:12:32.073Z,2.05
2023-01-08T11:14:59.567Z,3.15
2023-01-08T11:17:28.041Z,3.53
2023-01-08T11:19:56.030Z,2.30
2023-01-08T11:22:24.735Z,1.75
2023-01-08T11:24:52.869Z,1.70
2023-01-08T11:27:28.917Z,2.67
2023-01-08T11:30:01.782Z,3.60
2023-01-08T11:32:35.038Z,3.33
2023-01-08T11:35:17.997Z,2.17
2023-01-08T11:37:53.722Z,2.50
2023-01-08T11:40:44.518Z,4.78
2023-01-08T11:43:19.516Z,2.20
2023-01-08T11:48:25.977Z,10.05
2023-01-08T11:51:12.111Z,2.45
2023-01-08T11:53:44.116Z,3.03
2023-01-08T11:56:21.359Z,4.97
2023-01-08T11:59:07.008Z,3.67
2023-01-08T12:01:39.065Z,3.10
2023-01-08T12:04:06.255Z,3.42
2023-01-08T12:06:54.395Z,2.47
2023-01-08T12:09:30.704Z,4.10
2023-01-08T12:12:02.205Z,5.07
2023-01-08T12:14:32.440Z,3.80
2023-01-08T12:17:25.872Z,3.10
2023-01-08T12:19:56.018Z,3.17
2023-01-08T12:22:28.218Z,4.40
2023-01-08T12:25:07.409Z,2.72
2023-01-08T12:27:56.853Z,1.77
2023-01-08T12:30:43.137Z,3.63
2023-01-08T12:33:45.855Z,6.38
2023-01-08T12:36:15.094Z,4.43
2023-01-08T12:38:46.989Z,4.75
2023-01-08T12:41:16.424Z,3.95
2023-01-08T12:43:58.619Z,4.43
2023-01-08T12:46:27.758Z,4.68
2023-01-08T12:48:56.304Z,3.63
2023-01-08T12:51:23.389Z,4.60
2023-01-08T12:53:56.603Z,4.60
2023-01-08T12:56:23.738Z,3.33
2023-01-08T12:58:53.672Z,5.43
2023-01-08T13:01:32.982Z,5.47
2023-01-08T13:04:00.834Z,6.82
2023-01-08T13:06:28.053Z,5.15
2023-01-08T13:08:56.190Z,3.53
2023-01-08T13:11:42.233Z,4.07
2023-01-08T13:14:13.927Z,2.78
2023-01-08T13:16:42.474Z,4.22
2023-01-08T13:19:24.206Z,2.65
2023-01-08T13:21:53.265Z,2.78
2023-01-08T13:24:29.772Z,3.85
2023-01-08T13:26:57.896Z,5.40
2023-01-08T13:29:27.005Z,2.25
2023-01-08T13:31:54.264Z,2.80
2023-01-08T13:34:22.904Z,1.70
2023-01-08T13:36:57.334Z,1.35
2023-01-08T13:39:25.312Z,2.05
2023-01-08T13:42:01.606Z,2.30
2023-01-08T13:44:36.611Z,2.15
2023-01-08T13:49:43.252Z,2.55
2023-01-08T13:52:28.918Z,3.72
2023-01-08T13:54:56.208Z,4.35
2023-01-08T13:57:23.835Z,3.65
2023-01-08T13:59:55.476Z,4.68
2023-01-08T14:02:27.941Z,3.90
2023-01-08T14:04:55.338Z,4.25
2023-01-08T14:07:23.728Z,4.90
2023-01-08T14:09:51.081Z,6.88
2023-01-08T14:12:22.619Z,4.57
2023-01-08T14:14:59.842Z,3.45
2023-01-08T14:17:31.035Z,5.05
2023-01-08T14:19:58.616Z,5.13
2023-01-08T14:22:30.594Z,7.90
2023-01-08T14:24:59.108Z,5.32
2023-01-08T14:27:27.490Z,4.25
2023-01-08T14:29:54.790Z,4.28
2023-01-08T14:32:26.215Z,5.80
2023-01-08T14:34:54.885Z,4.93
2023-01-08T14:37:22.076Z,7.05
2023-01-08T14:39:54.360Z,5.55
2023-01-08T14:42:42.217Z,3.53
2023-01-08T14:45:27.130Z,4.50
2023-01-08T14:47:55.757Z,6.82
2023-01-08T14:50:30.434Z,3.40
2023-01-08T14:53:00.268Z,4.38
2023-01-08T14:55:27.694Z,4.82
2023-01-08T14:57:56.475Z,6.07
2023-01-08T15:00:25.933Z,5.13
2023-01-08T15:02:53.106Z,4.63
2023-01-08T15:05:22.431Z,6.35
2023-01-08T15:08:00.807Z,5.53
2023-01-08T15:10:36.080Z,4.10
2023-01-08T15:13:06.554Z,4.63
2023-01-08T15:15:34.793Z,5.30
2023-01-08T15:18:02.056Z,7.20
2023-01-08T15:20:31.779Z,8.20
2023-01-08T15:22:59.437Z,4.43
2023-01-08T15:25:31.045Z,4.05
2023-01-08T15:28:00.137Z,5.30
2023-01-08T15:30:45.527Z,4.47
2023-01-08T15:35:39.844Z,4.75
2023-01-08T15:38:07.109Z,4.30
2023-01-08T15:40:34.267Z,5.80
2023-01-08T15:43:10.424Z,7.32
2023-01-08T15:45:39.126Z,7.13
2023-01-08T15:48:06.646Z,6.15
2023-01-08T15:50:37.557Z,6.38
2023-01-08T15:53:17.244Z,6.18
2023-01-08T15:55:46.493Z,6.05
2023-01-08T15:58:14.443Z,5.50
2023-01-08T16:00:42.471Z,6.38
2023-01-08T16:03:09.925Z,6.65
2023-01-08T16:05:37.198Z,5.63
2023-01-08T16:08:04.968Z,7.13
2023-01-08T16:10:32.657Z,5.20
2023-01-08T16:13:02.970Z,4.95
2023-01-08T16:15:31.007Z,6.68
2023-01-08T16:17:59.181Z,5.47
2023-01-08T16:20:26.424Z,6.85
2023-01-08T16:22:54.929Z,4.60
2023-01-08T16:25:23.378Z,9.23
2023-01-08T16:27:50.910Z,7.88
2023-01-08T16:30:18.264Z,8.82
2023-01-08T16:32:46.710Z,6.20
2023-01-08T16:35:13.882Z,7.30
2023-01-08T16:37:41.086Z,5.20
2023-01-08T16:40:08.503Z,6.13
2023-01-08T16:42:36.158Z,8.35
2023-01-08T16:45:03.449Z,9.45
2023-01-08T16:47:30.675Z,9.20
2023-01-08T16:49:57.915Z,7.53
2023-01-08T16:52:25.054Z,6.05
2023-01-08T16:54:52.391Z,5.88
2023-01-08T16:57:19.614Z,6.60
2023-01-08T16:59:46.809Z,6.05
2023-01-08T17:02:14.071Z,6.20
2023-01-08T17:04:41.311Z,5.93
2023-01-08T17:07:08.552Z,7.78
2023-01-08T17:09:35.798Z,7.40
2023-01-08T17:12:02.991Z,8.32
2023-01-08T17:14:30.282Z,8.15
2023-01-08T17:16:57.474Z,7.15
2023-01-08T17:19:24.749Z,7.35
2023-01-08T17:21:51.990Z,7.10
2023-01-08T17:24:19.226Z,6.55
2023-01-08T17:26:46.387Z,10.98
2023-01-08T17:29:13.520Z,10.23
2023-01-08T17:31:40.780Z,8.80
2023-01-08T17:34:08.720Z,8.93
2023-01-08T17:36:36.281Z,5.68
2023-01-08T17:39:03.509Z,10.88
2023-01-08T17:41:49.846Z,10.10
2023-01-08T17:44:17.090Z,6.35
2023-01-08T17:46:45.343Z,7.88
2023-01-08T17:49:16.897Z,8.30
2023-01-08T17:51:44.181Z,8.02
2023-01-08T17:54:11.980Z,8.02
2023-01-08T17:56:39.460Z,12.27
2023-01-08T17:59:07.049Z,10.07
2023-01-08T18:01:35.207Z,11.80
2023-01-08T18:04:02.491Z,9.70
2023-01-08T18:06:29.742Z,11.13
2023-01-08T18:08:56.933Z,9.63
2023-01-08T18:11:25.488Z,10.38
2023-01-08T18:13:59.509Z,8.80
2023-01-08T18:16:26.976Z,8.43
2023-01-08T18:18:56.143Z,9.35
2023-01-08T18:21:23.610Z,10.00
2023-01-08T18:23:50.847Z,9.52
2023-01-08T18:26:19.272Z,8.93
2023-01-08T18:28:46.424Z,9.93
2023-01-08T18:31:14.055Z,11.07
2023-01-08T18:33:41.676Z,12.43
2023-01-08T18:36:10.093Z,9.18
2023-01-08T18:38:38.154Z,11.65
2023-01-08T18:41:05.979Z,11.52
2023-01-08T18:43:35.353Z,10.60
2023-01-08T18:46:04.412Z,17.35
2023-01-08T18:48:32.045Z,9.60
2023-01-08T18:51:05.226Z,11.70
2023-01-08T18:53:35.414Z,12.05
2023-01-08T18:56:05.782Z,13.90
2023-01-08T18:58:32.984Z,14.02
2023-01-08T19:01:04.996Z,12.35
2023-01-08T19:03:32.245Z,12.38
2023-01-08T19:05:59.874Z,12.48
2023-01-08T19:08:27.073Z,15.52
2023-01-08T19:10:54.222Z,12.75
2023-01-08T19:13:21.380Z,13.80
2023-01-08T19:15:48.549Z,13.15
2023-01-08T19:18:15.713Z,13.23
2023-01-08T19:20:43.504Z,12.00
2023-01-08T19:23:10.781Z,11.93
2023-01-08T19:25:39.867Z,11.02
2023-01-08T19:28:07.332Z,11.32
2023-01-08T19:30:34.536Z,10.85
2023-01-08T19:33:01.809Z,11.40
2023-01-08T19:35:29.309Z,8.90
2023-01-08T19:37:56.598Z,11.02
2023-01-08T19:40:23.796Z,8.35
2023-01-08T19:43:09.795Z,12.13
2023-01-08T19:45:37.475Z,10.52
2023-01-08T19:48:05.530Z,9.32
2023-01-08T19:50:34.101Z,10.27
2023-01-08T19:53:01.256Z,10.73
2023-01-08T19:55:28.498Z,9.02
2023-01-08T19:57:55.748Z,10.95
2023-01-08T20:00:23.053Z,12.70
2023-01-08T20:02:51.513Z,10.27
2023-01-08T20:05:18.743Z,10.95
2023-01-08T20:07:46.083Z,11.98
2023-01-08T20:10:13.594Z,10.07
2023-01-08T20:12:40.760Z,10.38
2023-01-08T20:15:08.232Z,8.57
2023-01-08T20:17:35.373Z,9.02
2023-01-08T20:20:02.540Z,10.85
2023-01-08T20:22:31.097Z,8.40
2023-01-08T20:24:58.722Z,10.35
2023-01-08T20:27:25.954Z,8.15
2023-01-08T20:29:53.106Z,8.80
2023-01-08T20:32:23.235Z,10.02
2023-01-08T20:34:50.589Z,8.77
2023-01-08T20:37:17.756Z,9.07
2023-01-08T20:39:46.095Z,10.00
2023-01-08T20:42:17.676Z,9.15
2023-01-08T20:44:54.631Z,9.43
2023-01-08T20:47:21.825Z,8.10
2023-01-08T20:49:48.956Z,6.97
2023-01-08T20:52:16.511Z,9.00
2023-01-08T20:54:43.675Z,17.15
2023-01-08T20:57:11.228Z,8.95
2023-01-08T20:59:38.422Z,8.15
2023-01-08T21:02:06.641Z,7.63
2023-01-08T21:04:34.071Z,8.02
2023-01-08T21:07:01.215Z,10.98
2023-01-08T21:09:28.495Z,8.30
2023-01-08T21:11:55.851Z,8.35
2023-01-08T21:14:23.027Z,9.27
2023-01-08T21:16:50.169Z,9.48
2023-01-08T21:19:20.534Z,10.35
2023-01-08T21:21:47.718Z,8.82
2023-01-08T21:24:15.740Z,9.63
2023-01-08T21:26:44.848Z,11.10
2023-01-08T21:29:12.112Z,9.75
2023-01-08T21:31:40.268Z,13.02
2023-01-08T21:34:08.962Z,9.27
2023-01-08T21:36:36.409Z,10.75
2023-01-08T21:39:03.634Z,9.73
2023-01-08T21:41:49.824Z,11.63
2023-01-08T21:44:37.664Z,8.73
2023-01-08T21:47:06.390Z,9.70
2023-01-08T21:49:33.631Z,12.57
2023-01-08T21:52:19.269Z,10.40
2023-01-08T21:54:46.487Z,11.18
2023-01-08T21:57:13.721Z,12.05
2023-01-08T21:59:40.900Z,11.85
2023-01-08T22:02:08.305Z,11.70
2023-01-08T22:04:35.512Z,12.02
2023-01-08T22:07:02.643Z,12.05
2023-01-08T22:09:30.078Z,12.80
2023-01-08T22:11:57.439Z,11.98
2023-01-08T22:14:24.610Z,10.55
2023-01-08T22:16:52.019Z,12.25
2023-01-08T22:19:19.178Z,13.38
2023-01-08T22:21:46.445Z,12.60
2023-01-08T22:24:13.611Z,11.70
2023-01-08T22:26:40.809Z,9.95
2023-01-08T22:29:08.096Z,12.65
2023-01-08T22:31:35.443Z,11.25
2023-01-08T22:34:02.669Z,14.55
2023-01-08T22:36:29.853Z,10.52
2023-01-08T22:38:57.244Z,12.30
2023-01-08T22:41:25.132Z,13.00
2023-01-08T22:43:56.679Z,10.25
2023-01-08T22:46:24.395Z,9.48
2023-01-08T22:48:51.692Z,10.00
2023-01-08T22:51:22.531Z,8.52
2023-01-08T22:53:49.676Z,8.85
2023-01-08T22:56:16.892Z,9.05
2023-01-08T22:58:46.859Z,9.40
2023-01-08T23:01:17.076Z,11.02
2023-01-08T23:03:44.697Z,8.10
2023-01-08T23:06:15.891Z,7.07
2023-01-08T23:08:44.127Z,8.15
2023-01-08T23:11:13.762Z,10.35
2023-01-08T23:13:40.931Z,8.35
2023-01-08T23:16:09.102Z,7.55
2023-01-08T23:18:36.967Z,8.35
2023-01-08T23:21:05.663Z,8.85
2023-01-08T23:23:32.982Z,7.32
2023-01-08T23:26:04.325Z,12.05
2023-01-08T23:28:31.604Z,8.10
2023-01-08T23:30:59.037Z,9.10
2023-01-08T23:33:26.562Z,7.95
2023-01-08T23:35:53.948Z,6.68
2023-01-08T23:38:21.202Z,9.38
2023-01-08T23:40:48.474Z,9.98
2023-01-08T23:43:15.859Z,9.95
2023-01-08T23:45:43.043Z,9.25
2023-01-08T23:48:10.231Z,8.35
2023-01-08T23:50:37.414Z,9.60
2023-01-08T23:53:04.648Z,9.55
2023-01-08T23:55:32.192Z,8.45
2023-01-08T23:57:59.425Z,7.70
